createdAt,value
2022-10-23T00:00:45.623Z,12.50
2022-10-23T00:04:51.723Z,12.50
2022-10-23T00:08:56.297Z,12.50
2022-10-23T00:12:59.015Z,12.40
2022-10-23T00:17:01.847Z,12.30
2022-10-23T00:21:05.230Z,12.20
2022-10-23T00:25:10.678Z,12.20
2022-10-23T00:29:13.487Z,12.20
2022-10-23T00:33:16.272Z,12.20
2022-10-23T00:37:18.992Z,12.20
2022-10-23T00:41:27.944Z,12.10
2022-10-23T00:45:33.341Z,12.10
2022-10-23T00:49:38.363Z,12.00
2022-10-23T00:53:43.069Z,11.90
2022-10-23T00:57:49.072Z,11.90
2022-10-23T01:01:51.928Z,11.90
2022-10-23T01:06:08.378Z,11.90
2022-10-23T01:10:16.567Z,11.80
2022-10-23T01:14:28.344Z,11.80
2022-10-23T01:18:40.734Z,11.70
2022-10-23T01:23:01.663Z,11.70
2022-10-23T01:27:21.778Z,11.70
2022-10-23T01:31:30.004Z,11.60
2022-10-23T01:35:37.738Z,11.50
2022-10-23T01:39:48.849Z,11.40
2022-10-23T01:43:56.831Z,11.40
2022-10-23T01:48:06.111Z,11.40
2022-10-23T01:52:13.934Z,11.40
2022-10-23T01:56:22.753Z,11.40
2022-10-23T02:00:27.055Z,11.40
2022-10-23T02:04:34.812Z,11.40
2022-10-23T02:08:37.859Z,11.40
2022-10-23T02:12:48.633Z,11.40
2022-10-23T02:16:55.353Z,11.30
2022-10-23T02:21:01.897Z,11.20
2022-10-23T02:25:11.661Z,11.10
2022-10-23T02:29:20.881Z,11.00
2022-10-23T02:33:27.405Z,10.80
2022-10-23T02:37:30.558Z,10.70
2022-10-23T02:41:41.690Z,10.50
2022-10-23T02:45:54.371Z,10.60
2022-10-23T02:50:05.974Z,10.60
2022-10-23T02:54:17.140Z,10.60
2022-10-23T02:58:25.231Z,10.60
2022-10-23T03:02:34.054Z,10.60
2022-10-23T03:06:38.415Z,10.60
2022-10-23T03:10:42.168Z,10.50
2022-10-23T03:14:45.032Z,10.60
2022-10-23T03:18:47.770Z,10.50
2022-10-23T03:22:51.849Z,10.50
2022-10-23T03:26:54.610Z,10.50
2022-10-23T03:31:06.095Z,10.50
2022-10-23T03:35:09.351Z,10.40
2022-10-23T03:39:13.451Z,10.40
2022-10-23T03:43:18.103Z,10.40
2022-10-23T03:47:21.043Z,10.30
2022-10-23T03:51:23.876Z,10.20
2022-10-23T03:55:28.196Z,10.20
2022-10-23T03:59:31.064Z,10.10
2022-10-23T04:03:34.957Z,10.10
2022-10-23T04:07:38.365Z,10.10
2022-10-23T04:11:42.461Z,10.10
2022-10-23T04:15:49.471Z,10.10
2022-10-23T04:19:52.820Z,10.10
2022-10-23T04:23:55.668Z,10.10
2022-10-23T04:28:00.373Z,10.20
2022-10-23T04:32:03.131Z,10.20
2022-10-23T04:36:06.778Z,10.30
2022-10-23T04:40:10.618Z,10.30
2022-10-23T04:44:15.838Z,10.30
2022-10-23T04:48:18.884Z,10.30
2022-10-23T04:52:42.091Z,10.30
2022-10-23T04:57:03.527Z,10.30
2022-10-23T05:01:21.969Z,10.30
2022-10-23T05:05:26.867Z,10.20
2022-10-23T05:09:38.393Z,10.10
2022-10-23T05:14:01.355Z,10.00
2022-10-23T05:18:11.710Z,10.00
2022-10-23T05:22:15.162Z,10.00
2022-10-23T05:26:27.611Z,10.00
2022-10-23T05:30:30.645Z,9.90
2022-10-23T05:34:38.222Z,9.90
2022-10-23T05:38:41.420Z,9.80
2022-10-23T05:42:51.581Z,9.80
2022-10-23T05:47:01.213Z,9.80
2022-10-23T05:51:23.665Z,9.70
2022-10-23T05:55:40.282Z,9.60
2022-10-23T06:00:02.230Z,9.60
2022-10-23T06:04:16.971Z,9.60
2022-10-23T06:08:53.800Z,9.50
2022-10-23T06:12:58.325Z,9.50
2022-10-23T06:17:02.447Z,9.60
2022-10-23T06:21:05.686Z,9.60
2022-10-23T06:25:10.719Z,9.70
2022-10-23T06:29:13.602Z,9.60
2022-10-23T06:33:18.406Z,9.70
2022-10-23T06:37:21.283Z,9.70
2022-10-23T06:41:38.870Z,9.80
2022-10-23T06:45:41.634Z,9.80
2022-10-23T06:49:49.885Z,9.90
2022-10-23T06:53:52.946Z,10.00
2022-10-23T06:58:17.002Z,10.10
2022-10-23T07:02:37.050Z,10.00
2022-10-23T07:06:40.309Z,10.10
2022-10-23T07:10:43.718Z,10.30
2022-10-23T07:14:47.832Z,10.50
2022-10-23T07:18:59.231Z,10.60
2022-10-23T07:23:04.854Z,10.70
2022-10-23T07:27:13.175Z,10.80
2022-10-23T07:31:18.334Z,10.90
2022-10-23T07:35:41.724Z,11.00
2022-10-23T07:39:48.243Z,11.10
2022-10-23T07:43:51.000Z,11.20
2022-10-23T07:47:55.154Z,11.30
2022-10-23T07:52:01.286Z,11.30
2022-10-23T07:56:16.710Z,11.40
2022-10-23T08:00:54.525Z,11.40
2022-10-23T08:05:06.373Z,11.60
2022-10-23T08:09:22.212Z,11.80
2022-10-23T08:13:25.227Z,12.00
2022-10-23T08:17:34.337Z,12.30
2022-10-23T08:21:42.949Z,12.60
2022-10-23T08:25:48.462Z,12.80
2022-10-23T08:29:53.277Z,13.00
2022-10-23T08:33:57.205Z,13.30
2022-10-23T08:38:01.276Z,13.60
2022-10-23T08:42:21.895Z,13.80
2022-10-23T08:46:30.099Z,14.00
2022-10-23T08:51:14.935Z,14.30
2022-10-23T08:55:24.088Z,14.50
2022-10-23T08:59:32.979Z,14.60
2022-10-23T09:03:35.763Z,14.90
2022-10-23T09:07:44.062Z,15.20
2022-10-23T09:11:56.428Z,15.60
2022-10-23T09:16:03.938Z,16.40
2022-10-23T09:20:15.592Z,17.60
2022-10-23T09:24:20.445Z,18.80
2022-10-23T09:28:28.220Z,19.50
2022-10-23T09:32:35.685Z,20.40
2022-10-23T09:36:51.289Z,21.90
2022-10-23T09:40:56.587Z,23.40
2022-10-23T09:45:01.777Z,25.20
2022-10-23T09:49:05.825Z,26.70
2022-10-23T09:53:18.170Z,28.30
2022-10-23T09:57:24.890Z,29.40
2022-10-23T10:01:32.575Z,30.50
2022-10-23T10:05:57.188Z,31.20
2022-10-23T10:10:00.568Z,32.50
2022-10-23T10:14:18.845Z,33.50
2022-10-23T10:18:27.447Z,33.90
2022-10-23T10:22:40.377Z,34.20
2022-10-23T10:26:50.990Z,35.00
2022-10-23T10:31:05.175Z,35.60
2022-10-23T10:35:24.639Z,36.00
2022-10-23T10:39:38.248Z,36.40
2022-10-23T10:43:52.301Z,36.60
2022-10-23T10:48:11.730Z,36.30
2022-10-23T10:52:48.307Z,36.20
2022-10-23T10:56:52.194Z,36.00
2022-10-23T11:00:59.326Z,35.50
2022-10-23T11:05:12.795Z,34.60
2022-10-23T11:09:21.259Z,34.10
2022-10-23T11:13:28.393Z,33.30
2022-10-23T11:17:38.143Z,32.90
2022-10-23T11:21:44.378Z,32.60
2022-10-23T11:25:59.863Z,31.80
2022-10-23T11:30:20.485Z,31.50
2022-10-23T11:34:49.116Z,30.80
2022-10-23T11:38:53.750Z,30.50
2022-10-23T11:42:57.795Z,30.30
2022-10-23T11:47:02.758Z,29.70
2022-10-23T11:51:06.134Z,29.30
2022-10-23T11:55:20.289Z,29.00
2022-10-23T11:59:29.341Z,28.70
2022-10-23T12:03:41.842Z,28.50
2022-10-23T12:07:45.285Z,29.20
2022-10-23T12:11:51.312Z,29.80
2022-10-23T12:15:58.592Z,30.00
2022-10-23T12:20:20.221Z,29.70
2022-10-23T12:24:49.346Z,29.10
2022-10-23T12:28:58.087Z,28.40
2022-10-23T12:33:14.292Z,27.60
2022-10-23T12:37:49.346Z,27.00
2022-10-23T12:41:52.131Z,26.40
2022-10-23T12:45:56.815Z,25.80
2022-10-23T12:50:00.922Z,25.40
2022-10-23T12:54:04.809Z,25.40
2022-10-23T12:58:20.661Z,26.30
2022-10-23T13:02:25.572Z,26.60
2022-10-23T13:06:30.428Z,27.00
2022-10-23T13:10:33.294Z,27.30
2022-10-23T13:14:45.806Z,27.00
2022-10-23T13:18:48.695Z,27.40
2022-10-23T13:23:00.563Z,27.70
2022-10-23T13:27:03.902Z,27.70
2022-10-23T13:31:25.792Z,27.10
2022-10-23T13:35:28.764Z,27.10
2022-10-23T13:39:34.610Z,26.90
2022-10-23T13:43:37.377Z,26.60
2022-10-23T13:47:40.224Z,26.20
2022-10-23T13:51:47.551Z,25.90
2022-10-23T13:55:56.322Z,25.70
2022-10-23T14:00:01.371Z,25.70
2022-10-23T14:04:05.370Z,25.70
2022-10-23T14:08:08.085Z,25.70
2022-10-23T14:12:13.502Z,25.60
2022-10-23T14:16:17.111Z,25.30
2022-10-23T14:20:21.448Z,25.00
2022-10-23T14:24:25.849Z,24.70
2022-10-23T14:28:29.940Z,24.30
2022-10-23T14:32:32.659Z,23.90
2022-10-23T14:36:49.294Z,23.60
2022-10-23T14:40:53.367Z,23.40
2022-10-23T14:44:57.446Z,23.20
2022-10-23T14:49:02.501Z,23.00
2022-10-23T14:53:05.449Z,22.80
2022-10-23T14:57:08.123Z,22.60
2022-10-23T15:01:12.367Z,22.50
2022-10-23T15:05:15.464Z,22.30
2022-10-23T15:09:19.615Z,22.20
2022-10-23T15:13:22.312Z,22.00
2022-10-23T15:17:26.386Z,21.90
2022-10-23T15:21:29.165Z,21.70
2022-10-23T15:25:31.858Z,21.50
2022-10-23T15:29:34.578Z,21.40
2022-10-23T15:33:38.854Z,21.30
2022-10-23T15:37:41.864Z,21.20
2022-10-23T15:41:44.815Z,21.10
2022-10-23T15:45:47.507Z,21.00
2022-10-23T15:49:51.599Z,20.80
2022-10-23T15:53:54.572Z,20.70
2022-10-23T15:58:01.846Z,20.60
2022-10-23T16:02:04.711Z,20.50
2022-10-23T16:06:11.206Z,20.40
2022-10-23T16:10:13.760Z,20.30
2022-10-23T16:14:19.206Z,20.20
2022-10-23T16:18:22.458Z,20.10
2022-10-23T16:22:27.051Z,20.00
2022-10-23T16:26:30.858Z,19.90
2022-10-23T16:30:33.580Z,19.80
2022-10-23T16:34:36.280Z,19.60
2022-10-23T16:38:40.445Z,19.50
2022-10-23T16:42:43.422Z,19.50
2022-10-23T16:46:49.972Z,19.40
2022-10-23T16:50:52.671Z,19.30
2022-10-23T16:54:56.725Z,19.20
2022-10-23T16:59:00.389Z,19.10
2022-10-23T17:03:04.042Z,19.10
2022-10-23T17:07:07.511Z,19.00
2022-10-23T17:11:13.674Z,18.90
2022-10-23T17:15:16.534Z,18.80
2022-10-23T17:23:45.219Z,18.50
2022-10-23T17:27:49.296Z,18.50
2022-10-23T17:31:52.243Z,18.40
2022-10-23T17:35:55.042Z,18.30
2022-10-23T17:40:01.123Z,18.30
2022-10-23T17:44:05.698Z,18.30
2022-10-23T17:48:08.411Z,18.30
2022-10-23T17:52:14.234Z,18.30
2022-10-23T17:56:19.973Z,18.20
2022-10-23T18:00:24.496Z,18.20
2022-10-23T18:04:27.299Z,18.10
2022-10-23T18:08:30.079Z,18.00
2022-10-23T18:12:32.872Z,18.00
2022-10-23T18:16:37.820Z,17.90
2022-10-23T18:20:41.833Z,17.80
2022-10-23T18:24:44.662Z,17.80
2022-10-23T18:28:49.135Z,17.70
2022-10-23T18:32:53.260Z,17.60
2022-10-23T18:36:56.440Z,17.60
2022-10-23T18:40:59.178Z,17.60
2022-10-23T18:45:01.922Z,17.50
2022-10-23T18:49:06.831Z,17.40
2022-10-23T18:53:09.628Z,17.40
2022-10-23T18:57:12.324Z,17.30
2022-10-23T19:01:15.121Z,17.20
2022-10-23T19:05:19.324Z,17.20
2022-10-23T19:09:22.076Z,17.10
2022-10-23T19:13:24.808Z,17.10
2022-10-23T19:17:30.935Z,17.00
2022-10-23T19:21:39.166Z,17.00
2022-10-23T19:25:44.853Z,16.90
2022-10-23T19:29:50.294Z,16.90
2022-10-23T19:33:53.054Z,17.00
2022-10-23T19:37:57.156Z,16.90
2022-10-23T19:42:00.341Z,17.00
2022-10-23T19:46:06.491Z,17.00
2022-10-23T19:50:13.010Z,16.90
2022-10-23T19:54:17.136Z,16.90
2022-10-23T19:58:19.849Z,17.00
2022-10-23T20:02:22.802Z,16.90
2022-10-23T20:06:28.802Z,16.90
2022-10-23T20:10:32.893Z,16.90
2022-10-23T20:14:35.605Z,16.90
2022-10-23T20:18:38.512Z,16.90
2022-10-23T20:22:43.132Z,16.90
2022-10-23T20:26:51.067Z,16.90
2022-10-23T20:30:53.780Z,16.90
2022-10-23T20:34:56.479Z,16.90
2022-10-23T20:39:00.376Z,16.90
2022-10-23T20:43:04.790Z,16.90
2022-10-23T20:47:07.508Z,16.90
2022-10-23T20:51:12.343Z,16.80
2022-10-23T20:55:15.156Z,16.90
2022-10-23T20:59:20.408Z,16.90
2022-10-23T21:03:23.167Z,16.90
2022-10-23T21:07:26.000Z,16.90
2022-10-23T21:11:28.882Z,16.90
2022-10-23T21:15:33.044Z,16.90
2022-10-23T21:19:35.796Z,16.80
2022-10-23T21:23:39.028Z,16.80
2022-10-23T21:27:42.052Z,16.80
2022-10-23T21:31:46.363Z,16.80
2022-10-23T21:35:58.510Z,16.70
2022-10-23T21:40:08.757Z,16.70
2022-10-23T21:44:13.987Z,16.70
2022-10-23T21:48:18.018Z,16.70
2022-10-23T21:52:20.744Z,16.70
2022-10-23T21:56:29.061Z,16.70
2022-10-23T22:00:31.746Z,16.70
2022-10-23T22:04:35.836Z,16.70
2022-10-23T22:08:38.534Z,16.80
2022-10-23T22:12:41.576Z,16.90
2022-10-23T22:16:44.295Z,16.90
2022-10-23T22:20:48.460Z,17.00
2022-10-23T22:24:51.396Z,17.00
2022-10-23T22:28:56.326Z,17.00
2022-10-23T22:32:59.020Z,17.00
2022-10-23T22:37:03.114Z,17.00
2022-10-23T22:41:06.571Z,17.10
2022-10-23T22:45:10.601Z,17.10
2022-10-23T22:49:13.481Z,17.10
2022-10-23T22:53:17.576Z,17.20
2022-10-23T22:57:20.394Z,17.20
2022-10-23T23:01:25.207Z,17.20
2022-10-23T23:05:27.989Z,17.20
2022-10-23T23:09:32.138Z,17.20
2022-10-23T23:13:34.982Z,17.20
2022-10-23T23:17:37.683Z,17.20
2022-10-23T23:21:40.417Z,17.20
2022-10-23T23:25:46.040Z,17.20
2022-10-23T23:29:48.830Z,17.20
2022-10-23T23:33:52.364Z,17.30
2022-10-23T23:37:55.063Z,17.20
2022-10-23T23:41:59.166Z,17.30
2022-10-23T23:46:01.866Z,17.20
2022-10-23T23:50:05.764Z,17.20
2022-10-23T23:54:08.538Z,17.20
2022-10-23T23:58:13.311Z,17.20
